Wednesday, June 29, 2016
21:47 UTC
  |  Log In   |  Register Free
Airport Search:

Hillsboro Municipal Airport
(KINJ)

Hillsboro Municipal Airport Diagram
No Airport Diagram Available

FAA data valid effective May 26 2016 - Jul 21 2016 (unless otherwise noted).

 
 
 
 
 
 
 
 
 
 
 
 
 
 
Current Aviation Weather for KINJ

Weather Summary


The most recent METAR observation for INJ was updated at: 12:55 UTC
METAR for KINJ is not available. Closest METAR is for KCPT
KINJ  (most recent observation was updatred at 29:21 UTC)
292116Z AUTO 07009KT 10SM SCT050 33/21 A2998 RMK AO2

KCPT  (23.6 nm SE)   (most recent observation was updated at 29:21 UTC)
292135Z AUTO 06009KT 10SM SCT050 BKN065 BKN110 33/22 A3000 RMK AO2

KJWY  (24.4 nm SW)   (most recent observation was updated at 29:21 UTC)
292135Z AUTO 07006KT 10SM SCT060 33/19 A3000 RMK AO2 T03310192

TAF for KINJ is not available.
KACT  (29.1 nm NE)   (most recent observation was updatred at 29:20 UTC)
AMD 292054Z 2921/3018 06007KT P6SM SCT050 FM300000 12006KT P6SM SCT050


KGKY  (34.8 nm SW)   (most recent observation was updatred at 29:20 UTC)
AMD 292054Z 2921/3018 12008KT P6SM SCT050


GlobalAir.com is loading additional information.
 Current Weather at INJ
91.0 F° (33.0 C°)

East winds at 10.4 mph
Pressure:
30.00 in
Humidity:
49%
Wind:
East at 10.4 mph
Dew Point:
69.8 F° (21.0 C°)
Visibility:
10.00 mi
INJ NOAA Radar




Find All Airport Services Find A Hotel Find A Rental Car Find A Golf Course Find A Restaurant $100 Hamburger



Airport Weather Forecast for KINJ

Translated METAR for KINJ (2116 UTC)
METAR:
KINJ 292116Z AUTO 07009KT 10SM SCT050 33/21 A2998 RMK AO2
Conditions at:
KINJ (Hillsboro Muni, TX) observed 2116 UTC 29 June 2016
Temperature:
33°C (91.4°F)
Dewpoint:
21°C (69.8°F) [RH = 49.4]
Pressure:
29.98 inches Hg (1015.2 mb)
Winds:
from the ENE (070 degrees) at 10.4 mph (9 knots: 4.6 m/s)
Visibility:
10 mile(s)
Ceiling:
at least 12,000 feet AGL
Clouds:
Scattered Clouds at 5,000 feet AGL
Remarks:
site is un-manned
site is automated and HAS a precipitation sensor

Translated TAF for KACT (Waco Rgnl, TX) (2054 UTC)
TAF text:
KACT 292054Z 2921/3018 06007KT P6SM SCT050
Forecast period:
Wednesday Jun 29 2016 21:00 UTC - Thursday Jun 30 2016 18:00 UTC
Forecast type:
FROM: standard forecast or significant change
Winds:
from the ENE (060 degrees) at 8.1 mph (7 knots: 3.6 m/s)
Visibility:
6 or more mile(s) (9.7+ km)
Ceiling:
at least 12,000 feet AGL
Clouds:
Scattered Clouds at 5,000 feet AGL
Weather:
no significant weather observed at this time
TAF text:
FM300000 12006KT P6SM SCT050
Forecast period:
Thursday Jun 30 2016 00:00 UTC - Thursday Jun 30 2016 18:00 UTC
Forecast type:
FROM: standard forecast or significant change
Winds:
from the ESE (120 degrees) at 6.9 mph (6 knots: 3.1 m/s)
Visibility:
6 or more mile(s) (9.7+ km)
Ceiling:
at least 12,000 feet AGL
Clouds:
Scattered Clouds at 5,000 feet AGL
Weather:
no significant weather observed at this time
FBO's on the Field
FBO Company Facility Photos Services Transportation Aviation Fuel Prices: Prices include tax
Catering Weather Repair Courtesy Rental Type 100LL JetA JetA+ MOGAS 8087
 
Hillsboro Municipal Airport

This FBO has not yet been rated
FS:Avfuel
Last Updated: Jun-28
Login to update fuel prices
SS:
Contact Hillsboro Municipal AirportMore FBO Information
 
Add another FBO Facility Photos Catering Weather Repair Courtesy Rental Type 100LL JetA JetA+ MOGAS 8087
Services Transportation Aviation Fuel Prices: Prices include tax


model-print
model-print
model-print
model-print